createdAt,value
2022-12-11T00:01:20.540Z,2.62
2022-12-11T00:03:48.651Z,2.48
2022-12-11T00:06:18.364Z,2.49
2022-12-11T00:08:45.740Z,2.42
2022-12-11T00:11:14.859Z,2.39
2022-12-11T00:13:42.210Z,2.21
2022-12-11T00:16:09.672Z,2.18
2022-12-11T00:18:37.149Z,2.27
2022-12-11T00:21:05.990Z,2.41
2022-12-11T00:23:34.733Z,2.26
2022-12-11T00:26:07.004Z,2.18
2022-12-11T00:28:34.056Z,2.08
2022-12-11T00:31:09.992Z,2.10
2022-12-11T00:33:37.150Z,2.09
2022-12-11T00:36:04.744Z,1.95
2022-12-11T00:38:31.762Z,2.10
2022-12-11T00:41:01.604Z,1.91
2022-12-11T00:43:28.863Z,1.85
2022-12-11T00:45:55.930Z,1.85
2022-12-11T00:48:22.969Z,1.82
2022-12-11T00:50:50.473Z,1.91
2022-12-11T00:53:17.458Z,1.90
2022-12-11T00:55:44.452Z,1.87
2022-12-11T00:58:12.444Z,1.74
2022-12-11T01:00:40.585Z,1.85
2022-12-11T01:03:08.028Z,1.77
2022-12-11T01:05:35.579Z,1.68
2022-12-11T01:08:02.906Z,1.71
2022-12-11T01:10:30.057Z,1.62
2022-12-11T01:12:58.234Z,1.56
2022-12-11T01:15:28.153Z,1.33
2022-12-11T01:17:55.245Z,1.35
2022-12-11T01:20:23.267Z,1.39
2022-12-11T01:22:55.102Z,1.30
2022-12-11T01:25:22.633Z,1.35
2022-12-11T01:27:53.366Z,1.42
2022-12-11T01:30:22.362Z,1.29
2022-12-11T01:32:49.832Z,1.35
2022-12-11T01:35:17.617Z,1.16
2022-12-11T01:37:45.351Z,1.28
2022-12-11T01:40:18.419Z,1.34
2022-12-11T01:42:45.660Z,1.09
2022-12-11T01:45:24.718Z,1.04
2022-12-11T01:48:01.263Z,0.99
2022-12-11T01:50:29.703Z,1.16
2022-12-11T01:52:56.807Z,1.05
2022-12-11T01:55:23.865Z,1.04
2022-12-11T01:57:51.479Z,1.12
2022-12-11T02:00:19.441Z,0.99
2022-12-11T02:02:46.959Z,1.02
2022-12-11T02:05:14.664Z,1.15
2022-12-11T02:07:45.891Z,1.09
2022-12-11T02:10:13.314Z,1.06
2022-12-11T02:12:54.565Z,0.96
2022-12-11T02:15:34.611Z,0.87
2022-12-11T02:18:20.823Z,1.02
2022-12-11T02:21:08.693Z,0.99
2022-12-11T02:23:38.796Z,0.93
2022-12-11T02:26:36.739Z,0.86
2022-12-11T02:29:09.536Z,0.78
2022-12-11T02:31:38.326Z,0.84
2022-12-11T02:34:29.336Z,0.77
2022-12-11T02:36:59.489Z,0.72
2022-12-11T02:39:27.774Z,0.75
2022-12-11T02:41:55.409Z,0.67
2022-12-11T02:44:28.276Z,0.69
2022-12-11T02:46:55.977Z,0.65
2022-12-11T02:49:23.396Z,0.59
2022-12-11T02:51:51.183Z,0.72
2022-12-11T02:54:22.607Z,0.69
2022-12-11T02:57:07.758Z,0.64
2022-12-11T02:59:44.055Z,0.79
2022-12-11T03:02:12.802Z,0.77
2022-12-11T03:04:41.088Z,0.70
2022-12-11T03:07:14.715Z,0.75
2022-12-11T03:09:44.524Z,0.76
2022-12-11T03:12:17.432Z,0.75
2022-12-11T03:14:44.967Z,0.64
2022-12-11T03:17:19.507Z,0.75
2022-12-11T03:19:56.315Z,0.59
2022-12-11T03:22:34.434Z,0.68
2022-12-11T03:25:08.028Z,0.60
2022-12-11T03:27:45.528Z,0.72
2022-12-11T03:30:21.773Z,0.68
2022-12-11T03:32:57.083Z,0.64
2022-12-11T03:35:45.752Z,0.63
2022-12-11T03:38:24.930Z,0.64
2022-12-11T03:40:55.327Z,0.69
2022-12-11T03:43:22.949Z,0.49
2022-12-11T03:45:52.217Z,0.53
2022-12-11T03:48:20.979Z,0.57
2022-12-11T03:50:48.933Z,0.67
2022-12-11T03:53:16.918Z,0.69
2022-12-11T03:55:45.274Z,0.69
2022-12-11T03:58:12.267Z,0.67
2022-12-11T04:00:39.646Z,0.53
2022-12-11T04:03:13.846Z,0.47
2022-12-11T04:05:51.355Z,0.73
2022-12-11T04:08:20.718Z,0.68
2022-12-11T04:10:48.212Z,0.62
2022-12-11T04:13:15.207Z,0.62
2022-12-11T04:15:42.545Z,0.59
2022-12-11T04:18:29.187Z,0.61
2022-12-11T04:21:15.088Z,0.64
2022-12-11T04:24:00.322Z,0.56
2022-12-11T04:26:27.669Z,0.55
2022-12-11T04:28:54.940Z,0.63
2022-12-11T04:31:22.755Z,0.56
2022-12-11T04:33:50.305Z,0.68
2022-12-11T04:36:17.730Z,0.70
2022-12-11T04:38:44.707Z,0.72
2022-12-11T04:41:14.233Z,0.72
2022-12-11T04:43:41.333Z,0.63
2022-12-11T04:46:20.177Z,0.73
2022-12-11T04:48:51.187Z,0.78
2022-12-11T04:51:19.865Z,0.72
2022-12-11T04:53:46.901Z,0.81
2022-12-11T04:56:15.641Z,0.73
2022-12-11T04:58:43.732Z,0.72
2022-12-11T05:01:12.654Z,0.73
2022-12-11T05:03:40.542Z,0.68
2022-12-11T05:06:08.304Z,0.62
2022-12-11T05:08:36.593Z,0.62
2022-12-11T05:11:06.192Z,0.63
2022-12-11T05:13:33.456Z,0.60
2022-12-11T05:16:00.599Z,0.66
2022-12-11T05:18:27.886Z,0.58
2022-12-11T05:21:01.872Z,0.58
2022-12-11T05:23:29.706Z,0.52
2022-12-11T05:26:10.726Z,0.70
2022-12-11T05:28:38.952Z,0.52
2022-12-11T05:31:08.729Z,0.59
2022-12-11T05:33:36.005Z,0.57
2022-12-11T05:36:03.901Z,0.56
2022-12-11T05:38:31.023Z,0.66
2022-12-11T05:41:01.537Z,0.64
2022-12-11T05:43:30.471Z,0.63
2022-12-11T05:46:08.831Z,0.57
2022-12-11T05:48:36.913Z,0.55
2022-12-11T05:51:04.644Z,0.59
2022-12-11T05:53:31.852Z,0.58
2022-12-11T05:56:04.298Z,0.64
2022-12-11T05:58:31.948Z,0.66
2022-12-11T06:01:00.024Z,0.64
2022-12-11T06:03:27.676Z,0.73
2022-12-11T06:05:54.793Z,0.67
2022-12-11T06:08:21.955Z,0.64
2022-12-11T06:10:49.970Z,0.67
2022-12-11T06:13:17.555Z,0.44
2022-12-11T06:15:44.572Z,0.59
2022-12-11T06:18:11.926Z,0.50
2022-12-11T06:20:39.039Z,0.52
2022-12-11T06:23:06.027Z,0.59
2022-12-11T06:25:33.573Z,0.50
2022-12-11T06:28:00.581Z,0.45
2022-12-11T06:30:38.448Z,0.49
2022-12-11T06:33:06.928Z,0.43
2022-12-11T06:35:40.075Z,0.46
2022-12-11T06:38:10.696Z,0.49
2022-12-11T06:40:38.248Z,0.48
2022-12-11T06:43:05.395Z,0.53
2022-12-11T06:45:32.779Z,0.53
2022-12-11T06:47:59.967Z,0.33
2022-12-11T06:50:27.003Z,0.45
2022-12-11T06:52:56.159Z,0.36
2022-12-11T06:55:23.149Z,0.41
2022-12-11T06:57:50.129Z,0.41
2022-12-11T07:00:17.456Z,0.42
2022-12-11T07:02:44.417Z,0.41
2022-12-11T07:05:11.656Z,0.43
2022-12-11T07:07:39.140Z,0.42
2022-12-11T07:10:08.555Z,0.45
2022-12-11T07:12:36.362Z,0.52
2022-12-11T07:15:06.924Z,0.49
2022-12-11T07:17:33.901Z,0.49
2022-12-11T07:20:00.884Z,0.47
2022-12-11T07:22:29.143Z,0.49
2022-12-11T07:24:56.119Z,0.50
2022-12-11T07:27:23.371Z,0.55
2022-12-11T07:29:51.433Z,0.70
2022-12-11T07:32:18.487Z,0.55
2022-12-11T07:34:51.421Z,0.68
2022-12-11T07:37:19.200Z,0.80
2022-12-11T07:39:46.171Z,0.81
2022-12-11T07:42:13.123Z,0.87
2022-12-11T07:44:40.476Z,0.88
2022-12-11T07:47:07.467Z,0.95
2022-12-11T07:49:34.467Z,0.79
2022-12-11T07:52:01.754Z,0.68
2022-12-11T07:54:28.745Z,0.84
2022-12-11T07:56:56.073Z,0.82
2022-12-11T07:59:23.421Z,0.82
2022-12-11T08:01:50.407Z,0.87
2022-12-11T08:04:17.752Z,0.99
2022-12-11T08:06:44.779Z,0.96
2022-12-11T08:09:20.747Z,0.98
2022-12-11T08:11:50.570Z,1.07
2022-12-11T08:14:18.439Z,0.79
2022-12-11T08:16:45.498Z,0.90
2022-12-11T08:19:13.277Z,0.99
2022-12-11T08:21:40.455Z,0.94
2022-12-11T08:24:08.867Z,1.02
2022-12-11T08:26:36.244Z,0.91
2022-12-11T08:29:03.539Z,0.92
2022-12-11T08:31:33.505Z,0.87
2022-12-11T08:34:00.994Z,0.85
2022-12-11T08:36:28.110Z,0.88
2022-12-11T08:38:56.360Z,0.85
2022-12-11T08:41:26.689Z,0.85
2022-12-11T08:43:55.290Z,0.83
2022-12-11T08:46:24.546Z,0.75
2022-12-11T08:48:52.453Z,0.92
2022-12-11T08:51:24.321Z,0.96
2022-12-11T08:53:52.007Z,1.01
2022-12-11T08:56:20.385Z,1.03
2022-12-11T08:58:47.665Z,0.98
2022-12-11T09:01:26.300Z,0.96
2022-12-11T09:03:55.104Z,0.99
2022-12-11T09:06:24.446Z,1.02
2022-12-11T09:08:53.422Z,1.10
2022-12-11T09:11:23.354Z,1.16
2022-12-11T09:13:50.669Z,1.00
2022-12-11T09:16:19.501Z,1.08
2022-12-11T09:18:48.529Z,1.09
2022-12-11T09:21:18.277Z,0.96
2022-12-11T09:23:45.792Z,0.98
2022-12-11T09:26:15.498Z,0.94
2022-12-11T09:28:46.765Z,0.89
2022-12-11T09:31:15.438Z,0.88
2022-12-11T09:33:43.296Z,0.96
2022-12-11T09:36:10.828Z,0.86
2022-12-11T09:38:38.105Z,1.03
2022-12-11T09:41:30.035Z,0.99
2022-12-11T09:44:12.698Z,0.93
2022-12-11T09:46:40.846Z,0.95
2022-12-11T09:49:34.904Z,1.01
2022-12-11T09:52:19.306Z,1.04
2022-12-11T09:54:51.384Z,1.12
2022-12-11T09:57:21.095Z,1.08
2022-12-11T10:00:09.733Z,1.12
2022-12-11T10:03:01.713Z,1.05
2022-12-11T10:05:31.504Z,1.18
2022-12-11T10:08:13.469Z,1.01
2022-12-11T10:11:11.068Z,0.92
2022-12-11T10:13:41.257Z,0.94
2022-12-11T10:16:29.640Z,0.92
2022-12-11T10:18:58.481Z,0.98
2022-12-11T10:21:26.615Z,0.97
2022-12-11T10:24:00.497Z,0.88
2022-12-11T10:26:29.321Z,0.75
2022-12-11T10:29:00.760Z,0.74
2022-12-11T10:31:30.845Z,0.82
2022-12-11T10:34:01.308Z,0.88
2022-12-11T10:36:32.206Z,0.92
2022-12-11T10:38:59.371Z,0.94
2022-12-11T10:41:40.494Z,0.93
2022-12-11T10:44:26.839Z,0.92
2022-12-11T10:47:06.069Z,0.80
2022-12-11T10:49:35.382Z,0.79
2022-12-11T10:52:13.082Z,0.79
2022-12-11T10:54:42.640Z,0.82
2022-12-11T10:57:11.564Z,0.84
2022-12-11T10:59:49.662Z,0.84
2022-12-11T11:02:29.859Z,0.83
2022-12-11T11:04:58.830Z,0.84
2022-12-11T11:07:30.940Z,1.06
2022-12-11T11:10:27.524Z,1.00
2022-12-11T11:13:01.657Z,0.94
2022-12-11T11:15:30.450Z,1.00
2022-12-11T11:18:02.920Z,0.97
2022-12-11T11:20:31.552Z,1.02
2022-12-11T11:23:01.280Z,1.05
2022-12-11T11:25:30.228Z,0.92
2022-12-11T11:28:05.155Z,0.97
2022-12-11T11:30:32.344Z,1.04
2022-12-11T11:33:05.098Z,0.92
2022-12-11T11:35:32.745Z,0.95
2022-12-11T11:38:11.581Z,0.99
2022-12-11T11:40:44.921Z,1.02
2022-12-11T11:43:29.193Z,0.97
2022-12-11T11:46:04.142Z,1.07
2022-12-11T11:48:37.612Z,1.03
2022-12-11T11:51:25.082Z,1.06
2022-12-11T11:53:54.668Z,1.02
2022-12-11T11:56:35.041Z,1.06
2022-12-11T11:59:21.367Z,1.10
2022-12-11T12:01:48.691Z,1.12
2022-12-11T12:04:16.161Z,1.17
2022-12-11T12:07:08.320Z,1.15
2022-12-11T12:10:11.113Z,1.15
2022-12-11T12:12:49.443Z,1.12
2022-12-11T12:15:37.936Z,1.06
2022-12-11T12:18:15.064Z,1.22
2022-12-11T12:20:51.040Z,1.16
2022-12-11T12:23:47.096Z,1.20
2022-12-11T12:26:23.264Z,1.15
2022-12-11T12:29:05.349Z,1.19
2022-12-11T12:32:00.297Z,1.14
2022-12-11T12:34:53.143Z,1.01
2022-12-11T12:37:40.138Z,1.11
2022-12-11T12:40:45.718Z,1.08
2022-12-11T12:43:22.080Z,1.05
2022-12-11T12:45:54.298Z,1.10
2022-12-11T12:48:22.795Z,1.16
2022-12-11T12:50:50.950Z,1.08
2022-12-11T12:53:20.907Z,1.26
2022-12-11T12:55:48.683Z,1.21
2022-12-11T12:58:31.633Z,1.22
2022-12-11T13:01:26.001Z,1.15
2022-12-11T13:04:08.633Z,1.24
2022-12-11T13:06:41.076Z,1.16
2022-12-11T13:09:21.968Z,1.15
2022-12-11T13:11:53.714Z,1.23
2022-12-11T13:14:24.252Z,1.27
2022-12-11T13:16:52.638Z,1.15
2022-12-11T13:19:25.593Z,1.09
2022-12-11T13:22:10.962Z,1.20
2022-12-11T13:24:52.009Z,1.19
2022-12-11T13:27:41.792Z,1.16
2022-12-11T13:30:23.198Z,1.22
2022-12-11T13:33:08.098Z,1.16
2022-12-11T13:35:35.314Z,1.09
2022-12-11T13:38:13.153Z,1.09
2022-12-11T13:40:42.529Z,1.20
2022-12-11T13:43:20.019Z,1.10
2022-12-11T13:45:55.884Z,1.23
2022-12-11T13:48:28.043Z,1.17
2022-12-11T13:50:56.154Z,1.10
2022-12-11T13:53:23.639Z,1.06
2022-12-11T13:56:14.938Z,0.97
2022-12-11T13:58:42.218Z,1.04
2022-12-11T14:01:11.950Z,1.02
2022-12-11T14:03:41.499Z,1.03
2022-12-11T14:06:18.209Z,1.12
2022-12-11T14:08:49.265Z,1.00
2022-12-11T14:11:27.953Z,1.07
2022-12-11T14:14:00.280Z,1.09
2022-12-11T14:16:27.894Z,1.10
2022-12-11T14:18:59.920Z,1.02
2022-12-11T14:21:26.941Z,1.08
2022-12-11T14:23:56.254Z,1.19
2022-12-11T14:26:32.157Z,1.11
2022-12-11T14:28:59.186Z,1.01
2022-12-11T14:31:26.473Z,1.06
2022-12-11T14:34:20.244Z,0.87
2022-12-11T14:36:48.144Z,0.94
2022-12-11T14:39:44.797Z,0.92
2022-12-11T14:42:19.128Z,0.84
2022-12-11T14:44:50.759Z,0.74
2022-12-11T14:47:27.815Z,0.76
2022-12-11T14:50:08.420Z,0.81
2022-12-11T14:52:42.483Z,0.67
2022-12-11T14:55:15.948Z,0.73
2022-12-11T14:57:45.987Z,0.66
2022-12-11T15:00:24.411Z,0.48
2022-12-11T15:03:24.560Z,0.47
2022-12-11T15:05:54.100Z,0.52
2022-12-11T15:08:30.296Z,0.50
2022-12-11T15:11:04.710Z,0.39
2022-12-11T15:13:33.484Z,0.38
2022-12-11T15:16:00.683Z,0.45
2022-12-11T15:18:31.413Z,0.37
2022-12-11T15:21:09.472Z,0.37
2022-12-11T15:23:45.617Z,0.31
2022-12-11T15:26:12.998Z,0.30
2022-12-11T15:28:40.200Z,0.30
2022-12-11T15:31:23.835Z,0.26
2022-12-11T15:33:51.575Z,0.26
2022-12-11T15:36:31.962Z,0.25
2022-12-11T15:38:59.563Z,0.17
2022-12-11T15:41:26.743Z,0.19
2022-12-11T15:43:58.565Z,0.14
2022-12-11T15:46:26.690Z,0.21
2022-12-11T15:48:53.770Z,0.09
2022-12-11T15:51:20.757Z,0.10
2022-12-11T15:53:48.059Z,0.01
2022-12-11T15:56:16.377Z,0.09
2022-12-11T15:58:44.774Z,0.13
2022-12-11T16:01:12.338Z,0.10
2022-12-11T16:03:39.681Z,0.17
2022-12-11T16:06:06.806Z,0.14
2022-12-11T16:08:33.831Z,0.04
2022-12-11T16:11:01.191Z,-0.05
2022-12-11T16:13:28.231Z,0.00
2022-12-11T16:15:55.387Z,0.01
2022-12-11T16:18:26.481Z,0.02
2022-12-11T16:20:53.533Z,-0.09
2022-12-11T16:23:21.037Z,-0.19
2022-12-11T16:25:48.958Z,-0.19
2022-12-11T16:28:18.111Z,-0.12
2022-12-11T16:30:45.548Z,-0.15
2022-12-11T16:33:13.785Z,-0.09
2022-12-11T16:35:42.778Z,-0.04
2022-12-11T16:38:11.150Z,-0.10
2022-12-11T16:40:38.488Z,-0.06
2022-12-11T16:43:05.793Z,-0.10
2022-12-11T16:45:33.139Z,-0.21
2022-12-11T16:48:04.255Z,-0.26
2022-12-11T16:50:32.315Z,-0.14
2022-12-11T16:52:59.524Z,-0.12
2022-12-11T16:55:26.878Z,-0.17
2022-12-11T16:57:54.447Z,-0.18
2022-12-11T17:00:21.455Z,-0.26
2022-12-11T17:02:49.048Z,-0.25
2022-12-11T17:05:16.195Z,-0.27
2022-12-11T17:07:43.273Z,-0.22
2022-12-11T17:10:10.902Z,-0.19
2022-12-11T17:12:38.969Z,-0.22
2022-12-11T17:15:06.723Z,-0.17
2022-12-11T17:17:34.111Z,-0.09
2022-12-11T17:20:01.108Z,-0.19
2022-12-11T17:22:28.091Z,-0.18
2022-12-11T17:24:55.368Z,-0.25
2022-12-11T17:27:22.986Z,-0.20
2022-12-11T17:29:50.796Z,-0.27
2022-12-11T17:32:18.536Z,-0.24
2022-12-11T17:34:48.160Z,-0.21
2022-12-11T17:37:15.168Z,-0.22
2022-12-11T17:39:42.694Z,-0.31
2022-12-11T17:42:09.722Z,-0.25
2022-12-11T17:44:38.865Z,-0.24
2022-12-11T17:47:10.777Z,-0.33
2022-12-11T17:49:39.495Z,-0.28
2022-12-11T17:52:07.080Z,-0.34
2022-12-11T17:54:34.955Z,-0.31
2022-12-11T17:57:02.726Z,-0.28
2022-12-11T17:59:30.030Z,-0.32
2022-12-11T18:01:57.658Z,-0.32
2022-12-11T18:04:25.436Z,-0.34
2022-12-11T18:06:52.447Z,-0.39
2022-12-11T18:09:19.447Z,-0.29
2022-12-11T18:11:49.705Z,-0.37
2022-12-11T18:14:17.532Z,-0.30
2022-12-11T18:16:44.823Z,-0.29
2022-12-11T18:19:14.117Z,-0.37
2022-12-11T18:21:43.036Z,-0.37
2022-12-11T18:24:10.279Z,-0.32
2022-12-11T18:26:37.662Z,-0.33
2022-12-11T18:29:04.811Z,-0.44
2022-12-11T18:31:31.833Z,-0.42
2022-12-11T18:33:59.341Z,-0.51
2022-12-11T18:36:26.682Z,-0.54
2022-12-11T18:38:53.815Z,-0.49
2022-12-11T18:41:21.191Z,-0.54
2022-12-11T18:43:48.203Z,-0.47
2022-12-11T18:46:19.696Z,-0.54
2022-12-11T18:48:48.121Z,-0.54
2022-12-11T18:51:18.461Z,-0.51
2022-12-11T18:53:46.132Z,-0.58
2022-12-11T18:56:16.438Z,-0.42
2022-12-11T18:58:43.819Z,-0.49
2022-12-11T19:01:18.551Z,-0.55
2022-12-11T19:03:46.116Z,-0.51
2022-12-11T19:06:18.425Z,-0.50
2022-12-11T19:08:46.140Z,-0.54
2022-12-11T19:11:18.475Z,-0.56
2022-12-11T19:13:46.605Z,-0.51
2022-12-11T19:16:18.315Z,-0.38
2022-12-11T19:18:45.900Z,-0.44
2022-12-11T19:21:13.920Z,-0.51
2022-12-11T19:23:41.382Z,-0.53
2022-12-11T19:26:18.347Z,-0.42
2022-12-11T19:28:45.786Z,-0.59
2022-12-11T19:31:15.424Z,-0.50
2022-12-11T19:33:43.719Z,-0.52
2022-12-11T19:36:12.609Z,-0.48
2022-12-11T19:38:41.431Z,-0.52
2022-12-11T19:41:10.835Z,-0.61
2022-12-11T19:43:37.902Z,-0.64
2022-12-11T19:46:06.459Z,-0.61
2022-12-11T19:48:37.369Z,-0.56
2022-12-11T19:51:05.909Z,-0.66
2022-12-11T19:53:33.975Z,-0.68
2022-12-11T19:56:01.037Z,-0.69
2022-12-11T19:58:28.392Z,-0.69
2022-12-11T20:00:56.757Z,-0.67
2022-12-11T20:03:24.700Z,-0.75
2022-12-11T20:05:51.696Z,-0.69
2022-12-11T20:08:43.705Z,-0.59
2022-12-11T20:11:12.837Z,-0.83
2022-12-11T20:13:45.600Z,-0.67
2022-12-11T20:16:13.372Z,-0.71
2022-12-11T20:18:40.664Z,-0.61
2022-12-11T20:21:12.825Z,-0.66
2022-12-11T20:23:41.782Z,-0.77
2022-12-11T20:26:10.692Z,-0.83
2022-12-11T20:28:38.435Z,-0.80
2022-12-11T20:31:08.792Z,-0.81
2022-12-11T20:33:35.971Z,-1.01
2022-12-11T20:36:07.669Z,-0.91
2022-12-11T20:38:35.120Z,-0.92
2022-12-11T20:41:02.125Z,-0.96
2022-12-11T20:43:29.153Z,-1.04
2022-12-11T20:45:56.463Z,-1.06
2022-12-11T20:48:24.225Z,-1.16
2022-12-11T20:50:51.215Z,-1.14
2022-12-11T20:53:18.503Z,-1.14
2022-12-11T20:55:45.568Z,-1.11
2022-12-11T20:58:12.548Z,-1.13
2022-12-11T21:00:40.123Z,-1.15
2022-12-11T21:03:07.184Z,-1.20
2022-12-11T21:05:34.299Z,-1.10
2022-12-11T21:08:01.654Z,-1.20
2022-12-11T21:10:28.672Z,-1.28
2022-12-11T21:12:55.652Z,-1.28
2022-12-11T21:15:22.913Z,-1.25
2022-12-11T21:17:49.945Z,-1.15
2022-12-11T21:20:17.043Z,-1.21
2022-12-11T21:22:44.447Z,-1.22
2022-12-11T21:25:11.794Z,-1.31
2022-12-11T21:27:38.996Z,-1.33
2022-12-11T21:30:06.887Z,-1.46
2022-12-11T21:32:35.266Z,-1.32
2022-12-11T21:35:03.133Z,-1.27
2022-12-11T21:37:30.523Z,-1.37
2022-12-11T21:39:57.943Z,-1.21
2022-12-11T21:42:25.797Z,-1.25
2022-12-11T21:45:37.502Z,-1.30
2022-12-11T21:47:40.751Z,-1.16
2022-12-11T21:50:08.280Z,-1.23
2022-12-11T21:52:37.637Z,-1.30
2022-12-11T21:55:05.642Z,-1.30
2022-12-11T21:57:33.213Z,-1.32
2022-12-11T22:00:00.218Z,-1.40
2022-12-11T22:02:27.322Z,-1.43
2022-12-11T22:04:54.610Z,-1.44
2022-12-11T22:07:21.947Z,-1.23
2022-12-11T22:09:48.918Z,-1.22
2022-12-11T22:12:24.828Z,-1.39
2022-12-11T22:14:52.007Z,-1.48
2022-12-11T22:17:19.385Z,-1.63
2022-12-11T22:19:46.888Z,-1.55
2022-12-11T22:22:14.453Z,-1.53
2022-12-11T22:24:41.741Z,-1.56
2022-12-11T22:27:08.725Z,-1.59
2022-12-11T22:29:35.733Z,-1.69
2022-12-11T22:32:04.108Z,-1.72
2022-12-11T22:34:31.108Z,-1.97
2022-12-11T22:36:58.449Z,-1.87
2022-12-11T22:39:25.738Z,-2.01
2022-12-11T22:41:52.762Z,-2.13
2022-12-11T22:44:21.202Z,-2.14
2022-12-11T22:46:50.397Z,-2.07
2022-12-11T22:49:18.991Z,-2.03
2022-12-11T22:51:46.123Z,-2.02
2022-12-11T22:54:13.413Z,-2.10
2022-12-11T22:56:40.433Z,-2.29
2022-12-11T22:59:07.640Z,-2.21
2022-12-11T23:01:34.963Z,-2.37
2022-12-11T23:04:01.977Z,-2.43
2022-12-11T23:06:28.994Z,-2.36
2022-12-11T23:09:00.242Z,-2.35
2022-12-11T23:11:30.297Z,-2.36
2022-12-11T23:13:57.926Z,-2.32
2022-12-11T23:16:26.572Z,-2.44
2022-12-11T23:18:54.645Z,-2.39
2022-12-11T23:21:23.009Z,-2.36
2022-12-11T23:23:50.179Z,-2.47
2022-12-11T23:26:18.780Z,-2.49
2022-12-11T23:28:47.118Z,-2.59
2022-12-11T23:31:14.855Z,-2.54
2022-12-11T23:33:42.056Z,-2.54
2022-12-11T23:36:09.743Z,-2.56
2022-12-11T23:38:37.388Z,-2.53
2022-12-11T23:41:05.147Z,-2.61
2022-12-11T23:43:34.664Z,-2.61
2022-12-11T23:46:02.708Z,-2.56
2022-12-11T23:48:29.753Z,-2.50
2022-12-11T23:51:01.541Z,-2.58
2022-12-11T23:53:28.814Z,-2.56
2022-12-11T23:55:56.146Z,-2.56
2022-12-11T23:58:23.403Z,-2.57
